Time;durP1;ratioP1;P1;durP2;ratioP2;P2;SDS_P1;SDS_P2;PMS_P1;PMS_P2;Temp;Humidity;BMP_temperature;BMP_pressure;BME280_temperature;BME280_humidity;BME280_pressure;Samples;Min_cycle;Max_cycle;Signal;HPM_P1;HPM_P2
2024/04/13 00:00:11;;;;;;;2.80;1.70;;;;;;;14.67;100.00;98877.47;5409301;26;20440;-79
2024/04/13 00:02:41;;;;;;;3.55;1.60;;;;;;;14.68;100.00;98874.44;5412915;26;20003;-79
2024/04/13 00:05:09;;;;;;;4.22;1.67;;;;;;;14.80;100.00;98890.22;5429086;26;20081;-80
2024/04/13 00:07:37;;;;;;;3.50;1.73;;;;;;;14.75;100.00;98888.44;5392990;26;20011;-81
2024/04/13 00:10:05;;;;;;;3.40;1.55;;;;;;;14.67;100.00;98882.94;5405680;26;20000;-80
2024/04/13 00:12:32;;;;;;;4.28;1.38;;;;;;;14.64;100.00;98878.09;5413238;26;19999;-79
2024/04/13 00:14:59;;;;;;;3.85;1.60;;;;;;;14.62;100.00;98880.31;5413244;26;20007;-80
2024/04/13 00:17:26;;;;;;;4.45;1.45;;;;;;;14.60;100.00;98879.84;5409088;26;20022;-81
2024/04/13 00:19:54;;;;;;;3.55;1.60;;;;;;;14.57;100.00;98877.72;5408771;26;20004;-80
2024/04/13 00:22:21;;;;;;;3.58;1.63;;;;;;;14.63;100.00;98880.03;5405468;26;20020;-82
2024/04/13 00:24:48;;;;;;;4.38;1.60;;;;;;;14.70;100.00;98880.41;5414322;26;20575;-82
2024/04/13 00:27:16;;;;;;;4.78;1.60;;;;;;;14.58;100.00;98882.84;5408260;26;20020;-80
2024/04/13 00:29:43;;;;;;;4.18;1.45;;;;;;;14.63;100.00;98880.03;5407232;26;20008;-81
2024/04/13 00:32:11;;;;;;;3.85;1.50;;;;;;;14.60;100.00;98888.81;5410303;26;20004;-81
2024/04/13 00:34:39;;;;;;;5.03;2.00;;;;;;;14.48;100.00;98887.78;5404632;26;20035;-80
2024/04/13 00:37:06;;;;;;;3.15;1.85;;;;;;;14.41;100.00;98893.63;5414662;26;20463;-81
2024/04/13 00:39:33;;;;;;;2.33;1.48;;;;;;;14.33;100.00;98883.47;5413277;26;20014;-82
2024/04/13 00:42:05;;;;;;;3.13;1.67;;;;;;;14.33;100.00;98888.94;5398375;26;20343;-82
2024/04/13 00:44:32;;;;;;;4.30;1.52;;;;;;;14.40;100.00;98892.03;5412367;26;20609;-79
2024/04/13 00:47:05;;;;;;;2.95;1.70;;;;;;;14.41;100.00;98893.63;5411617;26;20518;-80
2024/04/13 00:49:33;;;;;;;3.63;1.75;;;;;;;14.39;100.00;98884.16;5390005;26;20020;-80
2024/04/13 00:52:00;;;;;;;4.00;1.83;;;;;;;14.27;100.00;98892.88;5411327;26;20325;-81
2024/04/13 00:54:28;;;;;;;3.17;1.77;;;;;;;14.45;100.00;98889.19;5400170;26;20008;-80
2024/04/13 00:56:56;;;;;;;4.55;2.00;;;;;;;14.58;100.00;98891.03;5404865;26;20068;-79
2024/04/13 00:59:24;;;;;;;4.40;1.55;;;;;;;14.49;100.00;98883.91;5413535;26;19999;-81
2024/04/13 01:01:52;;;;;;;4.55;1.75;;;;;;;14.38;100.00;98891.53;5414459;26;19999;-82
2024/04/13 01:04:21;;;;;;;5.47;1.90;;;;;;;14.26;100.00;98886.63;5408488;26;20004;-80
2024/04/13 01:06:51;;;;;;;3.45;1.73;;;;;;;14.29;100.00;98894.16;5411856;26;20011;-82
2024/04/13 01:09:20;;;;;;;2.50;1.75;;;;;;;14.37;100.00;98889.13;5395751;26;20015;-81
2024/04/13 01:11:47;;;;;;;3.08;1.70;;;;;;;14.35;100.00;98894.88;5412914;26;20015;-80
2024/04/13 01:14:15;;;;;;;3.67;1.77;;;;;;;14.42;100.00;98886.28;5411464;26;20027;-82
2024/04/13 01:16:43;;;;;;;2.97;1.60;;;;;;;14.38;100.00;98891.53;5411249;26;20003;-82
2024/04/13 01:19:11;;;;;;;3.17;1.80;;;;;;;14.46;100.00;98898.16;5401170;26;20014;-82
2024/04/13 01:21:39;;;;;;;3.75;1.85;;;;;;;14.44;100.00;98895.75;5409282;26;20007;-80
2024/04/13 01:24:07;;;;;;;3.08;1.60;;;;;;;14.35;100.00;98892.94;5402365;26;20003;-83
2024/04/13 01:26:38;;;;;;;4.00;1.75;;;;;;;14.32;100.00;98892.78;5405914;26;20039;-81
2024/04/13 01:29:06;;;;;;;4.25;2.08;;;;;;;14.37;100.00;98892.66;5405912;26;20011;-81
2024/04/13 01:31:35;;;;;;;4.78;1.70;;;;;;;14.47;100.00;98886.97;5407175;26;19999;-82
2024/04/13 01:34:05;;;;;;;2.90;1.75;;;;;;;14.47;100.00;98883.44;5414001;26;20036;-80
2024/04/13 01:36:38;;;;;;;2.42;1.48;;;;;;;14.48;100.00;98882.31;5412074;26;20108;-81
2024/04/13 01:39:11;;;;;;;3.58;1.77;;;;;;;14.27;100.00;98871.09;5406663;26;20042;-81
2024/04/13 01:41:41;;;;;;;5.53;2.03;;;;;;;14.39;100.00;98879.53;5405493;26;20043;-80
2024/04/13 01:44:09;;;;;;;4.43;2.15;;;;;;;14.34;100.00;98871.47;5396726;26;20004;-81
2024/04/13 01:46:36;;;;;;;4.63;1.50;;;;;;;14.46;100.00;98881.81;5400209;26;20011;-81
2024/04/13 01:49:04;;;;;;;2.85;1.40;;;;;;;14.46;100.00;98873.63;5404606;26;20003;-81
2024/04/13 01:51:32;;;;;;;4.13;1.60;;;;;;;14.56;100.00;98874.19;5404272;26;20026;-82
2024/04/13 01:54:00;;;;;;;4.05;2.20;;;;;;;14.44;100.00;98873.94;5413543;26;20023;-82
2024/04/13 01:56:27;;;;;;;4.25;1.73;;;;;;;14.53;100.00;98872.09;5409640;26;20008;-81
2024/04/13 01:58:55;;;;;;;3.25;1.40;;;;;;;14.64;100.00;98856.28;5411168;26;20010;-80
2024/04/13 02:01:22;;;;;;;3.92;1.50;;;;;;;14.67;100.00;98856.47;5397272;26;20004;-80
2024/04/13 02:03:50;;;;;;;3.42;1.60;;;;;;;14.64;100.00;98868.00;5411319;26;20031;-81
2024/04/13 02:06:17;;;;;;;7.60;1.65;;;;;;;14.66;100.00;98859.53;5406202;26;20375;-80
2024/04/13 02:08:44;;;;;;;3.15;1.50;;;;;;;14.53;100.00;98858.47;5402059;26;20876;-80
2024/04/13 02:11:12;;;;;;;5.00;1.70;;;;;;;14.37;100.00;98862.69;5403441;26;20398;-80
2024/04/13 02:13:39;;;;;;;2.95;1.80;;;;;;;14.26;100.00;98856.66;5402972;26;20018;-79
2024/04/13 02:16:06;;;;;;;4.80;2.10;;;;;;;14.07;100.00;98864.16;5404969;26;20010;-79
2024/04/13 02:18:33;;;;;;;3.92;1.67;;;;;;;14.02;100.00;98860.75;5405497;26;20084;-80
2024/04/13 02:21:00;;;;;;;3.40;1.60;;;;;;;14.06;100.00;98859.84;5400933;26;20357;-79
2024/04/13 02:23:28;;;;;;;4.88;2.08;;;;;;;14.01;100.00;98859.16;5402177;26;20480;-79
2024/04/13 02:25:57;;;;;;;5.97;1.60;;;;;;;13.93;100.00;98866.13;5401674;26;19995;-79
2024/04/13 02:28:24;;;;;;;4.50;1.95;;;;;;;13.98;100.00;98859.78;5402581;26;20019;-81
2024/04/13 02:30:51;;;;;;;5.25;1.90;;;;;;;13.92;100.00;98850.09;5410710;26;20006;-82
2024/04/13 02:33:18;;;;;;;5.82;2.00;;;;;;;13.94;100.00;98866.91;5407594;26;20448;-80
2024/04/13 02:35:46;;;;;;;4.47;2.08;;;;;;;13.82;100.00;98861.22;5403543;26;20615;-80
2024/04/13 02:38:14;;;;;;;5.07;2.17;;;;;;;13.84;100.00;98851.63;5396650;26;20093;-79
2024/04/13 02:40:41;;;;;;;3.95;2.13;;;;;;;13.98;100.00;98851.59;5406551;26;20088;-81
2024/04/13 02:43:07;;;;;;;4.07;2.03;;;;;;;14.02;100.00;98860.75;5410321;26;20010;-82
2024/04/13 02:45:35;;;;;;;5.07;1.88;;;;;;;14.09;100.00;98850.25;5411616;26;20019;-80
2024/04/13 02:48:04;;;;;;;5.35;2.00;;;;;;;13.96;100.00;98851.88;5407624;26;20114;-80
2024/04/13 02:50:31;;;;;;;3.63;1.98;;;;;;;13.99;100.00;98853.22;5380194;26;20000;-82
2024/04/13 02:52:58;;;;;;;3.17;1.92;;;;;;;14.05;100.00;98841.09;5405914;26;20010;-82
2024/04/13 02:55:25;;;;;;;5.15;2.03;;;;;;;13.95;100.00;98844.84;5410578;26;20018;-81
2024/04/13 02:57:54;;;;;;;3.38;1.90;;;;;;;13.89;100.00;98845.25;5400106;26;20509;-80
2024/04/13 03:00:21;;;;;;;2.85;1.90;;;;;;;13.86;100.00;98830.34;5408157;26;20019;-80
2024/04/13 03:02:48;;;;;;;8.00;2.00;;;;;;;13.95;100.00;98841.31;5414754;26;20015;-81
2024/04/13 03:05:15;;;;;;;4.25;1.88;;;;;;;13.82;100.00;98845.69;5409468;26;20564;-81
2024/04/13 03:07:42;;;;;;;3.38;2.00;;;;;;;13.87;100.00;98845.56;5399762;26;20045;-80
2024/04/13 03:10:10;;;;;;;5.28;1.92;;;;;;;13.86;100.00;98846.66;5395091;26;20093;-80
2024/04/13 03:12:37;;;;;;;4.78;1.92;;;;;;;14.03;100.00;98846.03;5406555;26;20072;-80
2024/04/13 03:15:05;;;;;;;3.80;2.00;;;;;;;14.17;100.00;98846.78;5398549;26;20014;-79
2024/04/13 03:17:31;;;;;;;3.50;2.03;;;;;;;14.07;100.00;98845.09;5416086;26;20008;-80
2024/04/13 03:19:59;;;;;;;3.13;2.10;;;;;;;14.00;100.00;98846.66;5413738;26;20317;-79
2024/04/13 03:22:26;;;;;;;3.65;2.17;;;;;;;14.04;100.00;98825.88;5409693;26;20719;-80
2024/04/13 03:24:53;;;;;;;4.50;2.22;;;;;;;13.95;100.00;98846.75;5404591;26;20081;-79
2024/04/13 03:27:20;;;;;;;8.00;2.50;;;;;;;13.88;100.00;98854.56;5414893;26;20023;-79
2024/04/13 03:29:47;;;;;;;5.38;1.92;;;;;;;14.06;100.00;98848.97;5390190;26;20164;-80
2024/04/13 03:32:14;;;;;;;4.82;1.90;;;;;;;14.03;100.00;98846.84;5414513;26;20176;-79
2024/04/13 03:34:41;;;;;;;4.78;2.22;;;;;;;14.07;100.00;98853.28;5407426;26;20003;-81
2024/04/13 03:37:09;;;;;;;11.07;2.47;;;;;;;13.81;100.00;98837.84;5414811;26;20045;-82
2024/04/13 03:39:36;;;;;;;3.88;2.20;;;;;;;13.73;100.00;98853.75;5407058;26;19999;-80
2024/04/13 03:42:04;;;;;;;6.60;2.25;;;;;;;13.68;100.00;98840.28;5409149;26;20012;-80
2024/04/13 03:44:31;;;;;;;4.47;2.15;;;;;;;13.87;100.00;98845.56;5411719;26;20047;-80
2024/04/13 03:46:58;;;;;;;5.13;2.13;;;;;;;13.90;100.00;98830.53;5414828;26;20000;-79
2024/04/13 03:49:25;;;;;;;5.35;1.95;;;;;;;14.00;100.00;98835.75;5412623;26;20011;-80
2024/04/13 03:51:52;;;;;;;4.78;2.20;;;;;;;14.02;100.00;98828.06;5403031;26;20010;-81
2024/04/13 03:54:19;;;;;;;4.85;2.38;;;;;;;13.98;100.00;98832.53;5415300;26;20022;-80
2024/04/13 03:56:46;;;;;;;5.32;2.22;;;;;;;14.01;100.00;98827.28;5399911;26;20173;-78
2024/04/13 03:59:13;;;;;;;5.43;2.42;;;;;;;14.11;100.00;98837.13;5413687;26;20011;-81
2024/04/13 04:01:40;;;;;;;2.85;2.00;;;;;;;14.10;100.00;98838.22;5413921;26;20004;-81
2024/04/13 04:04:07;;;;;;;6.65;2.47;;;;;;;14.11;100.00;98821.59;5398996;26;20340;-80
2024/04/13 04:06:34;;;;;;;5.65;2.00;;;;;;;14.05;100.00;98839.16;5367140;26;20392;-81
2024/04/13 04:09:06;;;;;;;7.72;2.50;;;;;;;14.13;100.00;98838.44;5433940;26;20007;-79
2024/04/13 04:11:33;;;;;;;4.70;2.10;;;;;;;14.07;100.00;98849.75;5391860;26;20004;-78
2024/04/13 04:14:00;;;;;;;5.00;2.50;;;;;;;14.05;100.00;98836.44;5404991;26;20066;-78
2024/04/13 04:16:26;;;;;;;6.75;2.50;;;;;;;14.03;100.00;98832.41;5408461;26;20106;-78
2024/04/13 04:18:53;;;;;;;5.05;2.08;;;;;;;14.09;100.00;98823.03;5385309;26;20108;-81
2024/04/13 04:21:24;;;;;;;4.60;2.35;;;;;;;14.11;100.00;98837.94;5387630;26;20036;-81
2024/04/13 04:23:51;;;;;;;5.97;2.20;;;;;;;14.12;100.00;98823.19;5402578;26;20454;-80
2024/04/13 04:26:18;;;;;;;6.10;2.30;;;;;;;14.14;100.00;98831.06;5408599;26;20011;-81
2024/04/13 04:28:45;;;;;;;5.72;2.38;;;;;;;14.15;100.00;98829.94;5408294;26;20003;-80
2024/04/13 04:31:12;;;;;;;9.07;2.78;;;;;;;14.24;100.00;98822.66;5399335;26;20000;-80
2024/04/13 04:33:41;;;;;;;5.32;2.60;;;;;;;14.17;100.00;98822.25;5386308;26;20004;-81
2024/04/13 04:36:09;;;;;;;5.70;2.20;;;;;;;14.16;100.00;98812.50;5393317;26;20031;-81
2024/04/13 04:38:37;;;;;;;5.32;2.40;;;;;;;14.17;100.00;98809.47;5405484;26;20018;-80
2024/04/13 04:41:04;;;;;;;3.97;2.60;;;;;;;14.21;100.00;98818.63;5390991;26;20019;-79
2024/04/13 04:43:32;;;;;;;4.78;2.33;;;;;;;14.19;100.00;98803.72;5369834;26;20248;-79
2024/04/13 04:45:59;;;;;;;7.60;2.45;;;;;;;14.39;100.00;98821.50;5404562;26;20027;-81
2024/04/13 04:48:26;;;;;;;5.97;2.20;;;;;;;14.41;100.00;98805.63;5389749;26;20481;-78
2024/04/13 04:51:01;;;;;;;6.75;2.63;;;;;;;14.49;100.00;98821.25;5391877;26;20080;-79
2024/04/13 04:53:29;;;;;;;8.87;3.00;;;;;;;14.46;100.00;98814.50;5395882;26;20024;-81
2024/04/13 04:55:58;;;;;;;8.02;2.60;;;;;;;14.44;100.00;98819.47;5405538;26;20014;-82
2024/04/13 04:58:25;;;;;;;4.20;2.60;;;;;;;14.45;100.00;98823.00;5407571;26;20012;-81
2024/04/13 05:00:52;;;;;;;8.43;2.80;;;;;;;14.42;100.00;98810.78;5406964;26;20062;-83
2024/04/13 05:03:19;;;;;;;6.78;2.50;;;;;;;14.42;100.00;98810.00;5390392;26;20027;-83
2024/04/13 05:05:46;;;;;;;4.18;2.35;;;;;;;14.46;100.00;98816.41;5393566;26;20019;-83
2024/04/13 05:08:13;;;;;;;6.20;2.47;;;;;;;14.60;100.00;98828.06;5410316;26;20004;-84
2024/04/13 05:10:41;;;;;;;6.50;2.70;;;;;;;14.45;100.00;98812.09;5404798;26;19999;-84
2024/04/13 05:13:08;;;;;;;8.85;2.55;;;;;;;14.61;100.00;98824.19;5400555;26;20617;-83
2024/04/13 05:15:35;;;;;;;7.25;2.50;;;;;;;14.62;100.00;98828.53;5406700;26;20020;-85
2024/04/13 05:18:03;;;;;;;9.25;2.85;;;;;;;14.58;100.00;98822.91;5400307;26;20070;-84
2024/04/13 05:20:31;;;;;;;9.02;2.83;;;;;;;14.63;100.00;98832.88;5400983;26;20004;-84
2024/04/13 05:22:58;;;;;;;8.57;2.60;;;;;;;14.71;100.00;98845.75;5387160;26;20007;-81
2024/04/13 05:25:26;;;;;;;7.55;3.17;;;;;;;14.84;100.00;98840.22;5369330;26;20019;-85
2024/04/13 05:27:53;;;;;;;5.22;2.55;;;;;;;14.92;100.00;98849.53;5392675;26;20000;-84
2024/04/13 05:30:20;;;;;;;4.15;2.35;;;;;;;14.81;100.00;98840.81;5391307;26;20648;-82
2024/04/13 05:32:47;;;;;;;4.90;2.47;;;;;;;14.65;100.00;98820.56;5404970;26;19999;-82
2024/04/13 05:35:18;;;;;;;5.97;2.63;;;;;;;14.76;100.00;98840.19;5400844;26;20077;-81
2024/04/13 05:37:46;;;;;;;5.68;2.63;;;;;;;14.88;100.00;98852.13;5393857;26;20024;-82
2024/04/13 05:40:13;;;;;;;8.00;3.20;;;;;;;14.80;100.00;98854.78;5399494;26;20032;-82
2024/04/13 05:42:41;;;;;;;5.25;2.70;;;;;;;14.88;100.00;98865.75;5404932;26;20003;-82
2024/04/13 05:45:08;;;;;;;6.55;2.85;;;;;;;14.86;100.00;98859.81;5393479;26;20012;-83
2024/04/13 05:47:35;;;;;;;11.68;2.60;;;;;;;14.81;100.00;98864.59;5403095;26;20036;-82
2024/04/13 05:50:02;;;;;;;7.28;2.50;;;;;;;14.91;100.00;98867.03;5398697;26;19999;-82
2024/04/13 05:52:29;;;;;;;3.58;2.40;;;;;;;15.05;100.00;98864.19;5394030;26;20023;-84
2024/04/13 05:54:57;;;;;;;6.50;2.53;;;;;;;14.94;100.00;98845.38;5404341;26;20480;-82
2024/04/13 05:57:27;;;;;;;5.68;3.10;;;;;;;14.99;100.00;98856.16;5391175;26;20007;-82
2024/04/13 05:59:54;;;;;;;8.85;2.67;;;;;;;15.18;100.00;98890.59;5388569;26;20077;-82
2024/04/13 06:02:26;;;;;;;7.05;2.92;;;;;;;15.17;100.00;98878.91;5399610;26;20363;-82
2024/04/13 06:04:54;;;;;;;9.00;3.28;;;;;;;15.19;100.00;98868.47;5393784;26;20040;-82
2024/04/13 06:07:21;;;;;;;8.10;3.42;;;;;;;15.30;100.00;98872.53;5399548;26;20031;-82
2024/04/13 06:09:48;;;;;;;7.38;3.28;;;;;;;15.38;100.00;98884.59;5400646;26;20015;-83
2024/04/13 06:12:15;;;;;;;6.05;3.10;;;;;;;15.44;100.00;98889.59;5391853;26;20078;-82
2024/04/13 06:14:47;;;;;;;5.53;2.90;;;;;;;15.42;100.00;98886.38;5402468;26;20004;-82
2024/04/13 06:17:14;;;;;;;4.97;2.92;;;;;;;15.46;100.00;98879.19;5364847;26;19999;-82
2024/04/13 06:19:41;;;;;;;6.50;3.08;;;;;;;15.50;100.00;98885.63;5357375;26;20484;-83
2024/04/13 06:22:08;;;;;;;8.65;3.40;;;;;;;15.38;100.00;98882.66;5394702;26;20004;-82
2024/04/13 06:24:36;;;;;;;9.77;3.05;;;;;;;15.67;100.00;98887.59;5387991;26;20023;-81
2024/04/13 06:27:03;;;;;;;7.38;3.08;;;;;;;15.77;100.00;98879.09;5384434;26;20004;-82
2024/04/13 06:29:30;;;;;;;8.35;3.38;;;;;;;16.01;100.00;98901.31;5438848;26;20347;-82
2024/04/13 06:31:59;;;;;;;8.07;3.00;;;;;;;15.96;100.00;98895.19;5392391;26;20018;-83
2024/04/13 06:34:26;;;;;;;8.25;2.85;;;;;;;15.88;100.00;98863.22;5376298;26;20485;-82
2024/04/13 06:36:53;;;;;;;7.15;3.35;;;;;;;16.40;100.00;98897.66;5392319;26;20036;-84
2024/04/13 06:39:20;;;;;;;7.15;2.95;;;;;;;16.38;100.00;98899.09;5391102;26;20012;-83
2024/04/13 06:41:47;;;;;;;10.02;3.67;;;;;;;16.44;100.00;98893.13;5399173;26;20006;-83
2024/04/13 06:44:14;;;;;;;8.45;3.35;;;;;;;16.59;100.00;98894.63;5395389;26;20019;-83
2024/04/13 06:46:41;;;;;;;6.80;3.33;;;;;;;16.59;100.00;98897.38;5409876;26;20003;-83
2024/04/13 06:49:09;;;;;;;6.07;2.80;;;;;;;16.70;100.00;98899.44;5399956;26;19999;-83
2024/04/13 06:51:36;;;;;;;7.38;3.05;;;;;;;16.70;100.00;98887.69;5408800;26;20081;-83
2024/04/13 06:54:03;;;;;;;5.35;2.85;;;;;;;16.85;100.00;98894.59;5355727;26;21469;-84
2024/04/13 06:56:34;;;;;;;8.77;3.22;;;;;;;16.79;100.00;98893.94;5403988;26;20021;-83
2024/04/13 06:59:02;;;;;;;6.68;3.00;;;;;;;16.58;100.00;98895.75;5347832;26;20035;-83
2024/04/13 07:01:30;;;;;;;9.32;3.25;;;;;;;16.55;100.00;98899.94;5417454;26;20460;-82
2024/04/13 07:03:57;;;;;;;7.72;3.28;;;;;;;16.58;100.00;98907.50;5378484;26;20518;-84
2024/04/13 07:06:25;;;;;;;8.25;3.63;;;;;;;16.67;100.00;98908.28;5388453;26;20015;-84
2024/04/13 07:08:53;;;;;;;6.53;2.90;;;;;;;16.77;100.00;98915.38;5399661;26;20016;-83
2024/04/13 07:11:20;;;;;;;6.35;2.90;;;;;;;16.86;100.00;98905.19;5406465;26;20011;-83
2024/04/13 07:14:14;;;;;;;4.82;3.10;;;;;;;17.14;100.00;98916.56;5380893;26;20048;-84
2024/04/13 07:16:41;;;;;;;8.88;3.35;;;;;;;17.17;100.00;98904.97;5376139;26;20004;-85
2024/04/13 07:19:08;;;;;;;9.45;3.30;;;;;;;17.07;100.00;98908.03;5405956;26;20432;-83
2024/04/13 07:21:35;;;;;;;6.75;3.20;;;;;;;17.36;100.00;98917.16;5398998;26;21736;-84
2024/04/13 07:24:04;;;;;;;8.25;3.40;;;;;;;17.36;100.00;98914.41;5399390;26;20000;-84
2024/04/13 07:26:31;;;;;;;7.80;3.15;;;;;;;17.45;100.00;98906.94;5391923;26;20004;-84
2024/04/13 07:28:59;;;;;;;6.30;3.13;;;;;;;17.26;100.00;98906.56;5397966;26;20043;-84
2024/04/13 07:31:26;;;;;;;6.03;2.92;;;;;;;17.08;100.00;98915.94;5399599;26;20019;-85
2024/04/13 07:33:53;;;;;;;6.47;3.17;;;;;;;17.19;100.00;98898.03;5401141;26;20011;-83
2024/04/13 07:36:20;;;;;;;5.50;3.10;;;;;;;17.31;100.00;98903.63;5382374;26;20019;-85
2024/04/13 07:38:47;;;;;;;6.50;3.28;;;;;;;17.40;100.00;98901.66;5408781;26;20011;-86
2024/04/13 07:41:15;;;;;;;8.98;3.35;;;;;;;17.52;100.00;98895.50;5400438;26;20476;-84
2024/04/13 07:43:42;;;;;;;5.47;3.10;;;;;;;17.58;100.00;98899.66;5404629;26;20018;-84
2024/04/13 07:46:09;;;;;;;10.50;3.45;;;;;;;17.64;100.00;98894.81;5372346;26;20000;-84
2024/04/13 07:48:36;;;;;;;6.55;3.00;;;;;;;17.49;100.00;98890.69;5364197;26;20432;-82
2024/04/13 07:51:04;;;;;;;7.88;3.58;;;;;;;17.57;100.00;98889.88;5409244;26;20020;-83
2024/04/13 07:53:34;;;;;;;9.45;3.58;;;;;;;17.72;100.00;98869.31;5405716;26;20015;-84
2024/04/13 07:56:02;;;;;;;7.60;3.47;;;;;;;17.75;100.00;98874.94;5398000;26;20252;-85
2024/04/13 07:58:29;;;;;;;6.57;3.30;;;;;;;17.82;100.00;98871.66;5403654;26;20003;-83
2024/04/13 08:00:56;;;;;;;7.47;3.63;;;;;;;18.14;100.00;98870.97;5407097;26;20004;-84
2024/04/13 08:03:23;;;;;;;8.73;3.50;;;;;;;17.98;100.00;98854.31;5355276;26;20022;-82
2024/04/13 08:05:51;;;;;;;9.13;3.75;;;;;;;18.02;100.00;98859.91;5397785;26;20000;-84
2024/04/13 08:08:18;;;;;;;7.82;3.50;;;;;;;18.19;100.00;98868.03;5395394;26;20031;-84
2024/04/13 08:10:46;;;;;;;10.18;3.85;;;;;;;17.95;100.00;98860.47;5381340;26;20072;-84
2024/04/13 08:13:15;;;;;;;11.35;3.42;;;;;;;18.06;100.00;98849.91;5393267;26;20011;-85
2024/04/13 08:15:42;;;;;;;12.15;3.58;;;;;;;17.93;100.00;98870.16;5402162;26;20054;-84
2024/04/13 08:18:11;;;;;;;11.02;3.75;;;;;;;18.29;100.00;98864.88;5349641;26;20015;-82
2024/04/13 08:20:39;;;;;;;7.82;3.60;;;;;;;18.29;100.00;98858.59;5401901;26;20001;-85
2024/04/13 08:23:06;;;;;;;9.43;3.53;;;;;;;18.51;100.00;98839.06;5389545;26;20000;-83
2024/04/13 08:25:34;;;;;;;9.18;3.70;;;;;;;18.62;100.00;98843.00;5393786;26;20021;-82
2024/04/13 08:28:01;;;;;;;6.00;3.40;;;;;;;18.54;100.00;98835.66;5400732;26;20010;-86
2024/04/13 08:30:29;;;;;;;6.70;3.25;;;;;;;18.63;100.00;98841.88;5406058;26;20007;-84
2024/04/13 08:32:56;;;;;;;8.63;3.35;;;;;;;18.59;100.00;98840.91;5399839;26;20032;-84
2024/04/13 08:35:26;;;;;;;5.55;3.33;;;;;;;18.56;100.00;98825.13;5386045;26;19995;-83
2024/04/13 08:37:53;;;;;;;6.90;2.95;;;;;;;18.89;100.00;98817.66;5422183;26;20021;-85
2024/04/13 08:40:21;;;;;;;6.22;2.30;;;;;;;19.45;100.00;98831.72;5374471;26;20343;-84
2024/04/13 08:42:53;;;;;;;5.57;2.75;;;;;;;19.29;100.00;98818.66;5406925;26;20039;-83
2024/04/13 08:45:34;;;;;;;8.70;3.10;;;;;;;19.30;100.00;98822.97;5409678;26;20080;-85
2024/04/13 08:48:03;;;;;;;8.13;2.85;;;;;;;19.19;100.00;98807.31;5404087;26;19999;-84
2024/04/13 08:50:35;;;;;;;5.55;2.30;;;;;;;19.06;100.00;98808.44;5354847;26;20013;-83
2024/04/13 08:53:08;;;;;;;6.18;2.75;;;;;;;19.22;100.00;98787.41;5377889;26;20007;-83
2024/04/13 08:55:41;;;;;;;6.43;2.53;;;;;;;19.42;100.00;98807.69;5404309;26;20011;-84
2024/04/13 08:58:11;;;;;;;4.30;1.73;;;;;;;18.91;100.00;98804.44;5299803;26;20518;-83
2024/04/13 09:00:38;;;;;;;6.15;2.28;;;;;;;19.00;100.00;98838.06;5398249;26;20008;-83
2024/04/13 09:03:15;;;;;;;6.28;2.10;;;;;;;19.10;100.00;98801.13;5382510;26;20020;-84
2024/04/13 09:05:45;;;;;;;3.67;1.80;;;;;;;19.46;99.84;98842.34;5362645;26;20035;-83
2024/04/13 09:08:17;;;;;;;6.95;1.95;;;;;;;19.69;100.00;98828.97;5386054;26;20025;-84
2024/04/13 09:10:46;;;;;;;5.38;2.55;;;;;;;19.62;100.00;98821.28;5265431;26;20117;-82
2024/04/13 09:13:17;;;;;;;5.97;2.67;;;;;;;19.74;100.00;98835.00;5370854;26;20012;-83
2024/04/13 09:15:45;;;;;;;4.40;2.25;;;;;;;20.02;100.00;98837.84;5394331;26;20012;-83
2024/04/13 09:18:15;;;;;;;4.43;1.40;;;;;;;19.68;100.00;98806.19;5389130;26;20003;-83
2024/04/13 09:20:45;;;;;;;4.50;1.98;;;;;;;19.79;95.83;98821.06;5390980;26;20022;-84
2024/04/13 09:23:12;;;;;;;4.22;1.50;;;;;;;20.19;97.67;98836.75;5393019;26;20015;-84
2024/04/13 09:25:39;;;;;;;3.28;1.52;;;;;;;20.45;91.08;98834.41;5411745;26;20007;-84
2024/04/13 09:28:07;;;;;;;4.20;1.33;;;;;;;20.50;88.92;98845.97;5424655;26;20147;-83
2024/04/13 09:30:34;;;;;;;3.08;1.40;;;;;;;20.93;88.45;98820.38;5406579;26;20051;-83
2024/04/13 09:33:06;;;;;;;3.35;1.40;;;;;;;20.69;84.71;98834.28;5395917;26;20456;-83
2024/04/13 09:35:36;;;;;;;5.32;1.35;;;;;;;21.28;87.41;98833.50;5409803;26;20331;-83
2024/04/13 09:38:03;;;;;;;3.67;1.17;;;;;;;21.62;79.33;98828.03;5405150;26;20281;-83
2024/04/13 09:40:31;;;;;;;1.77;0.80;;;;;;;21.15;72.84;98823.72;5406299;26;20614;-83
2024/04/13 09:43:00;;;;;;;1.38;0.80;;;;;;;21.07;69.96;98804.25;5405029;26;20011;-83
2024/04/13 09:45:28;;;;;;;4.30;1.00;;;;;;;21.46;72.07;98807.16;5401726;26;20026;-80
2024/04/13 09:47:58;;;;;;;2.65;1.15;;;;;;;21.49;68.44;98811.97;5396730;26;20403;-81
2024/04/13 09:50:29;;;;;;;1.67;0.98;;;;;;;21.74;68.12;98807.81;5404230;26;20000;-83
2024/04/13 09:53:00;;;;;;;2.90;1.27;;;;;;;21.67;71.86;98802.97;5408774;26;19996;-81
2024/04/13 09:55:28;;;;;;;3.85;1.27;;;;;;;22.08;73.74;98796.00;5400297;26;20003;-81
2024/04/13 09:57:56;;;;;;;3.55;0.98;;;;;;;22.11;66.33;98795.28;5400385;26;20092;-81
2024/04/13 10:00:24;;;;;;;3.78;1.05;;;;;;;22.01;66.00;98798.63;5403503;26;20029;-80
2024/04/13 10:02:52;;;;;;;2.17;1.17;;;;;;;21.59;67.01;98786.59;5405707;26;19999;-82
2024/04/13 10:05:20;;;;;;;2.13;0.82;;;;;;;22.20;67.94;98801.38;5401733;26;20508;-81
2024/04/13 10:07:49;;;;;;;3.97;1.15;;;;;;;22.31;67.50;98796.88;5393965;26;20003;-79
2024/04/13 10:10:17;;;;;;;4.85;1.20;;;;;;;22.21;65.60;98791.94;5406976;26;20164;-79
2024/04/13 10:12:45;;;;;;;1.95;1.05;;;;;;;22.12;62.83;98788.59;5391684;26;20054;-78
2024/04/13 10:15:14;;;;;;;3.10;1.10;;;;;;;22.77;63.17;98788.69;5407565;26;20011;-78
2024/04/13 10:17:43;;;;;;;3.15;0.95;;;;;;;22.73;60.28;98788.66;5408271;26;20004;-79
2024/04/13 10:20:10;;;;;;;2.05;1.10;;;;;;;23.01;58.30;98791.13;5402719;26;20572;-78
2024/04/13 10:22:37;;;;;;;2.42;1.20;;;;;;;22.49;58.67;98782.63;5385494;26;20008;-79
2024/04/13 10:25:07;;;;;;;1.88;1.00;;;;;;;22.49;58.72;98777.09;5380968;26;20010;-79
2024/04/13 10:27:35;;;;;;;2.35;0.95;;;;;;;22.55;56.81;98767.38;5365632;26;20004;-79
2024/04/13 10:30:03;;;;;;;2.67;0.98;;;;;;;22.50;58.96;98767.66;5394270;26;20026;-80
2024/04/13 10:32:30;;;;;;;1.33;0.80;;;;;;;22.05;61.61;98760.06;5391316;26;20086;-78
2024/04/13 10:35:14;;;;;;;1.80;0.93;;;;;;;23.28;60.42;98762.34;5393676;26;20000;-80
2024/04/13 10:37:41;;;;;;;2.70;1.00;;;;;;;23.09;54.45;98750.59;5406030;26;20000;-81
2024/04/13 10:40:08;;;;;;;3.35;1.02;;;;;;;23.28;53.08;98756.81;5403847;26;20007;-79
2024/04/13 10:42:40;;;;;;;3.42;0.80;;;;;;;23.77;55.70;98747.69;5396231;26;20033;-80
2024/04/13 10:45:13;;;;;;;3.58;0.85;;;;;;;23.79;54.60;98746.16;5418720;26;20426;-79
2024/04/13 10:47:41;;;;;;;3.17;0.90;;;;;;;23.55;52.97;98736.34;5384970;26;20084;-80
2024/04/13 10:50:17;;;;;;;4.47;0.88;;;;;;;23.51;53.68;98741.00;5393021;26;20004;-79
2024/04/13 10:52:44;;;;;;;2.17;0.98;;;;;;;23.79;55.84;98754.44;5416492;26;20007;-79
2024/04/13 10:55:17;;;;;;;2.95;1.20;;;;;;;23.97;53.39;98740.84;5386939;26;20701;-79
2024/04/13 10:57:49;;;;;;;2.20;1.08;;;;;;;23.66;54.73;98735.69;5391707;26;20419;-80
2024/04/13 11:00:18;;;;;;;2.08;0.98;;;;;;;24.51;51.78;98730.03;5388238;26;20460;-79
2024/04/13 11:02:50;;;;;;;2.20;1.10;;;;;;;23.71;52.54;98738.13;5397413;26;20028;-79
2024/04/13 11:05:18;;;;;;;3.88;1.30;;;;;;;23.50;51.89;98738.63;5402080;26;20007;-79
2024/04/13 11:07:46;;;;;;;2.88;1.00;;;;;;;24.56;51.46;98720.59;5395011;26;20004;-81
2024/04/13 11:10:13;;;;;;;1.35;0.90;;;;;;;24.91;51.99;98734.78;5385217;26;20367;-81
2024/04/13 11:12:42;;;;;;;2.05;0.90;;;;;;;23.50;51.59;98728.38;5384832;26;20068;-79
2024/04/13 11:15:09;;;;;;;4.10;1.17;;;;;;;24.07;52.08;98716.09;5395578;26;20085;-80
2024/04/13 11:17:36;;;;;;;1.42;0.85;;;;;;;24.00;51.59;98735.34;5392073;26;20035;-80
2024/04/13 11:20:10;;;;;;;2.03;0.82;;;;;;;24.43;53.51;98706.22;5417783;26;20440;-80
2024/04/13 11:22:39;;;;;;;1.60;0.93;;;;;;;24.94;49.54;98722.13;5394483;26;20340;-79
2024/04/13 11:25:07;;;;;;;3.00;1.20;;;;;;;23.55;52.61;98708.69;5388472;26;20037;-79
2024/04/13 11:27:37;;;;;;;2.78;1.00;;;;;;;24.57;49.43;98697.25;5393673;26;20012;-78
2024/04/13 11:30:04;;;;;;;2.22;0.88;;;;;;;24.56;49.76;98712.28;5385283;26;20010;-78